Whiteland, Indiana
Current Conditions -  °F | °C
As of 10:54 AM on Thursday 30 Oct 2014 (Local Time) from KIND Reporting Station
Few Clouds Few Clouds  
Wind Chill: 46°   Ceiling: Unl
Heat Index: 46°   Visibility: 10mi
Dew Point: 34°   Wind: 0mph
Humidity: 63%   Direction: NA
Pressure: 30.17"   Gusts: NA
Location:  39.55°N, 86.08°W
Report Text: KIND 301454Z 00000KT 10SM FEW250 08/01 A3017 RMK AO2 SLP218 T00780011 51002
Loading
Personal Weather Stations






























Interactive Weather Map
Tropical Storm Tracking
New forecast layout! Learn more

10-Day Weather Forecast

Advertisements
Track Severe Weather on mobile